CTG2 weather

Montreal / St-Hubert Helicraft
Montréal, Quebec, Canada

Public forecast

Using degrees Celsius for public forecast. Weather courtesy of forecast.io.

METAR (pilot weather report)

Closest report is Montréal / Saint-Hubert Airport, 0.9 nm (1.7 km) SSW. Retrieved 2019/09/15 08:00 UTC (40 minutes ago):

CYHU 150800Z AUTO 26011G20KT 9SM CLR 15/09 A3005 RMK SLP176

TAF (pilot weather forecast)

Closest forecast is Montréal / Saint-Hubert Airport, 0.9 nm (1.7 km) SSW. Retrieved 2019/09/15 06:42 UTC (2 hours ago):

TAF CYHU 150538Z 1506/1606 26008G18KT P6SM BKN050 FM151100 28010KT P6SM BKN020 TEMPO 1511/1515 SCT020 FM151500 26015KT P6SM SCT030 BKN140 FM152200 27010KT P6SM BKN050 BECMG 1602/1604 30006KT RMK FCST BASED ON AUTO OBS. NXT FCST BY 151200Z